createdAt,value
2022-11-27T00:01:42.935Z,972.36
2022-11-27T00:02:44.065Z,972.35
2022-11-27T00:03:43.055Z,972.31
2022-11-27T00:04:42.973Z,972.33
2022-11-27T00:05:43.969Z,972.31
2022-11-27T00:07:42.956Z,972.28
2022-11-27T00:09:43.029Z,972.27
2022-11-27T00:11:42.874Z,972.28
2022-11-27T00:13:42.940Z,972.25
2022-11-27T00:14:42.876Z,972.24
2022-11-27T00:15:42.956Z,972.19
2022-11-27T00:17:42.882Z,972.21
2022-11-27T00:18:43.057Z,972.19
2022-11-27T00:19:42.880Z,972.17
2022-11-27T00:20:43.076Z,972.16
2022-11-27T00:21:42.859Z,972.18
2022-11-27T00:22:42.847Z,972.2
2022-11-27T00:23:43.014Z,972.22
2022-11-27T00:24:42.973Z,972.2
2022-11-27T00:25:42.939Z,972.21
2022-11-27T00:26:43.068Z,972.22
2022-11-27T00:27:42.925Z,972.2
2022-11-27T00:28:42.860Z,972.21
2022-11-27T00:29:42.905Z,972.15
2022-11-27T00:31:43.235Z,972.09
2022-11-27T00:32:43.032Z,972.07
2022-11-27T00:33:42.942Z,972.05
2022-11-27T00:35:42.992Z,972.04
2022-11-27T00:36:46.786Z,972.08
2022-11-27T00:37:42.914Z,972.02
2022-11-27T00:38:43.100Z,972.04
2022-11-27T00:39:43.011Z,972.05
2022-11-27T00:40:42.998Z,972
2022-11-27T00:43:44.780Z,971.96
2022-11-27T00:44:43.107Z,971.92
2022-11-27T00:45:43.058Z,971.89
2022-11-27T00:46:42.991Z,971.84
2022-11-27T00:47:42.909Z,971.83
2022-11-27T00:48:43.040Z,971.8
2022-11-27T00:49:42.886Z,971.81
2022-11-27T00:50:43.029Z,971.8
2022-11-27T00:51:43.045Z,971.79
2022-11-27T00:53:43.149Z,971.82
2022-11-27T00:54:42.968Z,971.8
2022-11-27T00:55:42.975Z,971.82
2022-11-27T00:56:43.005Z,971.78
2022-11-27T00:57:43.138Z,971.77
2022-11-27T00:58:43.170Z,971.79
2022-11-27T01:00:43.137Z,971.77
2022-11-27T01:01:43.161Z,971.75
2022-11-27T01:02:43.023Z,971.77
2022-11-27T01:03:43.183Z,971.74
2022-11-27T01:04:43.139Z,971.77
2022-11-27T01:05:43.064Z,971.76
2022-11-27T01:06:44.690Z,971.73
2022-11-27T01:07:43.131Z,971.74
2022-11-27T01:08:43.063Z,971.75
2022-11-27T01:10:43.034Z,971.69
2022-11-27T01:11:43.048Z,971.72
2022-11-27T01:13:43.201Z,971.7
2022-11-27T01:14:43.039Z,971.69
2022-11-27T01:15:44.344Z,971.67
2022-11-27T01:16:43.386Z,971.62
2022-11-27T01:17:43.018Z,971.66
2022-11-27T01:18:43.116Z,971.63
2022-11-27T01:19:43.094Z,971.59
2022-11-27T01:20:43.078Z,971.53
2022-11-27T01:21:42.960Z,971.51
2022-11-27T01:22:42.938Z,971.49
2022-11-27T01:23:43.009Z,971.46
2022-11-27T01:25:43.164Z,971.47
2022-11-27T01:26:44.878Z,971.46
2022-11-27T01:27:42.995Z,971.49
2022-11-27T01:28:43.052Z,971.51
2022-11-27T01:30:43.118Z,971.54
2022-11-27T01:31:43.188Z,971.55
2022-11-27T01:32:44.317Z,971.53
2022-11-27T01:33:43.086Z,971.54
2022-11-27T01:34:43.060Z,971.55
2022-11-27T01:36:43.188Z,971.5
2022-11-27T01:37:43.175Z,971.54
2022-11-27T01:38:43.258Z,971.53
2022-11-27T01:39:43.115Z,971.42
2022-11-27T01:40:43.072Z,971.47
2022-11-27T01:41:43.134Z,971.53
2022-11-27T01:42:43.150Z,971.56
2022-11-27T01:43:43.219Z,971.55
2022-11-27T01:44:43.189Z,971.48
2022-11-27T01:45:43.246Z,971.46
2022-11-27T01:46:43.129Z,971.43
2022-11-27T01:47:43.154Z,971.39
2022-11-27T01:48:43.119Z,971.46
2022-11-27T01:49:43.082Z,971.41
2022-11-27T01:50:43.151Z,971.35
2022-11-27T01:51:43.161Z,971.32
2022-11-27T01:52:43.054Z,971.27
2022-11-27T01:53:43.027Z,971.28
2022-11-27T01:54:43.347Z,971.22
2022-11-27T01:55:44.465Z,971.23
2022-11-27T01:56:43.137Z,971.21
2022-11-27T01:57:43.151Z,971.16
2022-11-27T01:58:43.220Z,971.12
2022-11-27T01:59:43.057Z,971.11
2022-11-27T02:00:43.194Z,971.1
2022-11-27T02:01:43.269Z,971.09
2022-11-27T02:02:43.238Z,971.07
2022-11-27T02:03:43.087Z,971.05
2022-11-27T02:04:43.244Z,971.04
2022-11-27T02:05:43.270Z,971.02
2022-11-27T02:06:43.258Z,971
2022-11-27T02:08:43.295Z,970.98
2022-11-27T02:09:43.164Z,971.02
2022-11-27T02:10:43.181Z,970.95
2022-11-27T02:11:43.338Z,970.97
2022-11-27T02:12:43.202Z,970.94
2022-11-27T02:13:43.210Z,970.93
2022-11-27T02:17:43.243Z,970.94
2022-11-27T02:18:43.290Z,970.92
2022-11-27T02:19:43.296Z,970.95
2022-11-27T02:20:43.289Z,970.96
2022-11-27T02:21:43.139Z,970.95
2022-11-27T02:22:43.223Z,970.93
2022-11-27T02:23:43.182Z,970.91
2022-11-27T02:26:43.249Z,970.86
2022-11-27T02:27:43.168Z,970.84
2022-11-27T02:28:43.181Z,970.83
2022-11-27T02:29:43.196Z,970.86
2022-11-27T02:30:43.370Z,970.87
2022-11-27T02:31:43.275Z,970.92
2022-11-27T02:32:43.191Z,970.93
2022-11-27T02:33:43.265Z,970.94
2022-11-27T02:35:43.314Z,970.92
2022-11-27T02:36:43.212Z,970.86
2022-11-27T02:37:43.267Z,970.85
2022-11-27T02:38:43.215Z,970.86
2022-11-27T02:39:43.253Z,970.83
2022-11-27T02:40:43.267Z,970.84
2022-11-27T02:41:43.343Z,970.81
2022-11-27T02:42:43.383Z,970.84
2022-11-27T02:44:43.287Z,970.81
2022-11-27T02:45:43.347Z,970.79
2022-11-27T02:46:43.219Z,970.84
2022-11-27T02:47:43.301Z,970.85
2022-11-27T02:48:44.192Z,970.87
2022-11-27T02:49:43.160Z,970.92
2022-11-27T02:50:43.315Z,970.89
2022-11-27T02:51:43.187Z,970.9
2022-11-27T02:53:43.233Z,970.91
2022-11-27T02:54:43.315Z,970.92
2022-11-27T02:55:43.356Z,970.87
2022-11-27T02:56:43.336Z,970.91
2022-11-27T02:57:43.375Z,970.86
2022-11-27T02:58:43.401Z,970.87
2022-11-27T02:59:43.258Z,970.88
2022-11-27T03:00:43.253Z,970.9
2022-11-27T03:01:43.396Z,970.89
2022-11-27T03:02:43.305Z,970.91
2022-11-27T03:03:43.313Z,970.94
2022-11-27T03:04:43.415Z,970.92
2022-11-27T03:05:44.257Z,970.91
2022-11-27T03:06:43.312Z,970.94
2022-11-27T03:07:43.509Z,970.9
2022-11-27T03:09:43.315Z,970.84
2022-11-27T03:10:43.269Z,970.87
2022-11-27T03:12:43.439Z,970.86
2022-11-27T03:13:43.229Z,970.87
2022-11-27T03:14:43.352Z,970.86
2022-11-27T03:15:43.462Z,970.84
2022-11-27T03:17:43.283Z,970.8
2022-11-27T03:18:43.386Z,970.81
2022-11-27T03:19:43.289Z,970.79
2022-11-27T03:20:43.308Z,970.76
2022-11-27T03:21:43.366Z,970.72
2022-11-27T03:22:43.348Z,970.68
2022-11-27T03:23:43.253Z,970.7
2022-11-27T03:24:43.473Z,970.69
2022-11-27T03:25:43.385Z,970.67
2022-11-27T03:26:43.336Z,970.69
2022-11-27T03:27:43.427Z,970.64
2022-11-27T03:28:43.473Z,970.67
2022-11-27T03:29:43.239Z,970.64
2022-11-27T03:30:43.407Z,970.62
2022-11-27T03:31:43.428Z,970.67
2022-11-27T03:32:43.431Z,970.65
2022-11-27T03:33:43.353Z,970.63
2022-11-27T03:34:43.545Z,970.61
2022-11-27T03:35:43.397Z,970.64
2022-11-27T03:36:43.324Z,970.6
2022-11-27T03:37:43.494Z,970.59
2022-11-27T03:38:43.428Z,970.57
2022-11-27T03:39:43.347Z,970.59
2022-11-27T03:40:44.448Z,970.56
2022-11-27T03:41:43.274Z,970.57
2022-11-27T03:42:43.423Z,970.6
2022-11-27T03:43:43.338Z,970.58
2022-11-27T03:44:43.488Z,970.57
2022-11-27T03:45:43.455Z,970.58
2022-11-27T03:46:43.516Z,970.54
2022-11-27T03:47:43.419Z,970.57
2022-11-27T03:48:43.444Z,970.52
2022-11-27T03:49:43.478Z,970.56
2022-11-27T03:50:43.348Z,970.51
2022-11-27T03:51:43.395Z,970.54
2022-11-27T03:52:43.321Z,970.52
2022-11-27T03:53:43.286Z,970.57
2022-11-27T03:54:43.297Z,970.56
2022-11-27T03:56:43.459Z,970.6
2022-11-27T03:58:43.387Z,970.58
2022-11-27T04:00:43.585Z,970.57
2022-11-27T04:02:43.465Z,970.52
2022-11-27T04:03:43.566Z,970.53
2022-11-27T04:04:43.480Z,970.54
2022-11-27T04:07:43.637Z,970.53
2022-11-27T04:08:43.436Z,970.55
2022-11-27T04:10:43.485Z,970.53
2022-11-27T04:12:43.433Z,970.56
2022-11-27T04:13:43.628Z,970.51
2022-11-27T04:15:43.487Z,970.54
2022-11-27T04:17:43.500Z,970.55
2022-11-27T04:18:43.657Z,970.56
2022-11-27T04:19:43.383Z,970.52
2022-11-27T04:20:43.525Z,970.51
2022-11-27T04:21:43.406Z,970.52
2022-11-27T04:22:43.506Z,970.59
2022-11-27T04:23:43.364Z,970.56
2022-11-27T04:24:43.367Z,970.62
2022-11-27T04:25:43.500Z,970.57
2022-11-27T04:27:43.526Z,970.53
2022-11-27T04:28:43.478Z,970.5
2022-11-27T04:29:43.598Z,970.49
2022-11-27T04:30:43.504Z,970.51
2022-11-27T04:31:43.677Z,970.53
2022-11-27T04:32:43.558Z,970.5
2022-11-27T04:33:43.638Z,970.53
2022-11-27T04:34:43.614Z,970.54
2022-11-27T04:35:43.598Z,970.51
2022-11-27T04:36:43.462Z,970.52
2022-11-27T04:37:43.483Z,970.49
2022-11-27T04:38:43.611Z,970.52
2022-11-27T04:39:43.584Z,970.57
2022-11-27T04:40:43.620Z,970.51
2022-11-27T04:42:43.653Z,970.49
2022-11-27T04:43:43.429Z,970.46
2022-11-27T04:44:43.576Z,970.48
2022-11-27T04:45:43.702Z,970.43
2022-11-27T04:47:43.569Z,970.47
2022-11-27T04:48:43.673Z,970.4
2022-11-27T04:49:43.592Z,970.46
2022-11-27T04:50:43.516Z,970.43
2022-11-27T04:51:43.654Z,970.47
2022-11-27T04:52:43.589Z,970.49
2022-11-27T04:53:43.457Z,970.48
2022-11-27T04:54:43.672Z,970.52
2022-11-27T04:55:43.586Z,970.53
2022-11-27T04:56:43.624Z,970.56
2022-11-27T04:57:43.683Z,970.54
2022-11-27T04:58:43.566Z,970.56
2022-11-27T04:59:43.460Z,970.53
2022-11-27T05:00:43.553Z,970.51
2022-11-27T05:01:43.475Z,970.53
2022-11-27T05:02:43.513Z,970.57
2022-11-27T05:03:43.593Z,970.55
2022-11-27T05:04:43.488Z,970.58
2022-11-27T05:05:43.593Z,970.57
2022-11-27T05:06:43.569Z,970.59
2022-11-27T05:07:43.608Z,970.62
2022-11-27T05:08:43.473Z,970.61
2022-11-27T05:09:43.468Z,970.6
2022-11-27T05:10:43.677Z,970.63
2022-11-27T05:11:43.661Z,970.66
2022-11-27T05:12:43.640Z,970.67
2022-11-27T05:13:43.640Z,970.72
2022-11-27T05:14:43.622Z,970.75
2022-11-27T05:16:46.011Z,970.77
2022-11-27T05:17:43.667Z,970.71
2022-11-27T05:18:43.615Z,970.68
2022-11-27T05:19:43.718Z,970.63
2022-11-27T05:20:43.710Z,970.65
2022-11-27T05:21:43.665Z,970.66
2022-11-27T05:22:43.635Z,970.65
2022-11-27T05:23:43.628Z,970.66
2022-11-27T05:24:43.748Z,970.64
2022-11-27T05:26:43.764Z,970.62
2022-11-27T05:27:43.597Z,970.63
2022-11-27T05:28:44.876Z,970.64
2022-11-27T05:30:43.660Z,970.66
2022-11-27T05:31:43.812Z,970.7
2022-11-27T05:32:43.649Z,970.71
2022-11-27T05:33:43.657Z,970.68
2022-11-27T05:34:43.711Z,970.7
2022-11-27T05:35:43.654Z,970.71
2022-11-27T05:36:43.618Z,970.73
2022-11-27T05:37:43.823Z,970.65
2022-11-27T05:38:43.760Z,970.63
2022-11-27T05:39:43.786Z,970.59
2022-11-27T05:40:43.810Z,970.58
2022-11-27T05:41:43.589Z,970.56
2022-11-27T05:42:43.668Z,970.52
2022-11-27T05:43:43.684Z,970.49
2022-11-27T05:45:43.851Z,970.47
2022-11-27T05:46:43.776Z,970.46
2022-11-27T05:47:43.575Z,970.44
2022-11-27T05:48:43.707Z,970.45
2022-11-27T05:49:43.672Z,970.47
2022-11-27T05:50:43.738Z,970.46
2022-11-27T05:51:49.313Z,970.47
2022-11-27T05:52:43.761Z,970.45
2022-11-27T05:53:43.716Z,970.49
2022-11-27T05:54:43.647Z,970.48
2022-11-27T05:55:43.823Z,970.47
2022-11-27T05:56:43.680Z,970.45
2022-11-27T05:57:43.772Z,970.44
2022-11-27T05:59:43.790Z,970.42
2022-11-27T06:01:43.799Z,970.4
2022-11-27T06:02:43.925Z,970.38
2022-11-27T06:05:43.684Z,970.34
2022-11-27T06:06:43.825Z,970.37
2022-11-27T06:07:43.708Z,970.35
2022-11-27T06:08:43.667Z,970.34
2022-11-27T06:09:43.639Z,970.32
2022-11-27T06:10:43.899Z,970.34
2022-11-27T06:11:43.896Z,970.36
2022-11-27T06:14:43.862Z,970.4
2022-11-27T06:15:45.055Z,970.35
2022-11-27T06:16:43.842Z,970.36
2022-11-27T06:17:43.755Z,970.34
2022-11-27T06:18:43.671Z,970.32
2022-11-27T06:20:44.749Z,970.37
2022-11-27T06:21:43.983Z,970.4
2022-11-27T06:22:43.842Z,970.39
2022-11-27T06:23:43.812Z,970.41
2022-11-27T06:24:43.777Z,970.42
2022-11-27T06:25:43.847Z,970.44
2022-11-27T06:26:43.805Z,970.46
2022-11-27T06:27:43.822Z,970.47
2022-11-27T06:28:43.837Z,970.52
2022-11-27T06:29:43.818Z,970.5
2022-11-27T06:30:43.901Z,970.51
2022-11-27T06:31:43.962Z,970.48
2022-11-27T06:32:43.781Z,970.49
2022-11-27T06:34:43.817Z,970.44
2022-11-27T06:36:43.920Z,970.42
2022-11-27T06:37:43.866Z,970.46
2022-11-27T06:38:43.780Z,970.45
2022-11-27T06:39:43.789Z,970.42
2022-11-27T06:40:43.913Z,970.44
2022-11-27T06:41:44.800Z,970.47
2022-11-27T06:43:43.816Z,970.46
2022-11-27T06:44:44.001Z,970.41
2022-11-27T06:46:43.783Z,970.44
2022-11-27T06:47:43.822Z,970.46
2022-11-27T06:48:43.899Z,970.54
2022-11-27T06:49:43.999Z,970.57
2022-11-27T06:51:43.892Z,970.62
2022-11-27T06:52:44.011Z,970.63
2022-11-27T06:53:43.851Z,970.62
2022-11-27T06:54:43.810Z,970.61
2022-11-27T06:55:43.783Z,970.58
2022-11-27T06:56:43.780Z,970.56
2022-11-27T06:57:43.809Z,970.58
2022-11-27T06:58:43.780Z,970.56
2022-11-27T06:59:43.957Z,970.54
2022-11-27T07:00:44.000Z,970.55
2022-11-27T07:01:44.877Z,970.53
2022-11-27T07:02:43.891Z,970.58
2022-11-27T07:03:43.870Z,970.53
2022-11-27T07:04:44.018Z,970.5
2022-11-27T07:05:43.948Z,970.46
2022-11-27T07:06:43.910Z,970.47
2022-11-27T07:07:44.195Z,970.42
2022-11-27T07:08:43.802Z,970.37
2022-11-27T07:10:43.785Z,970.32
2022-11-27T07:11:43.847Z,970.33
2022-11-27T07:12:43.896Z,970.32
2022-11-27T07:13:44.951Z,970.3
2022-11-27T07:15:44.157Z,970.33
2022-11-27T07:16:43.909Z,970.3
2022-11-27T07:17:43.921Z,970.31
2022-11-27T07:19:43.872Z,970.27
2022-11-27T07:20:43.990Z,970.26
2022-11-27T07:23:44.004Z,970.22
2022-11-27T07:24:43.921Z,970.24
2022-11-27T07:25:43.889Z,970.23
2022-11-27T07:26:43.939Z,970.19
2022-11-27T07:27:44.038Z,970.25
2022-11-27T07:28:43.962Z,970.24
2022-11-27T07:30:44.086Z,970.2
2022-11-27T07:31:44.015Z,970.22
2022-11-27T07:32:43.940Z,970.27
2022-11-27T07:33:43.886Z,970.3
2022-11-27T07:34:44.022Z,970.26
2022-11-27T07:35:44.039Z,970.28
2022-11-27T07:36:43.854Z,970.29
2022-11-27T07:37:43.975Z,970.28
2022-11-27T07:38:43.898Z,970.27
2022-11-27T07:40:44.044Z,970.3
2022-11-27T07:41:44.147Z,970.29
2022-11-27T07:42:43.995Z,970.36
2022-11-27T07:43:44.079Z,970.38
2022-11-27T07:44:44.002Z,970.41
2022-11-27T07:46:44.099Z,970.42
2022-11-27T07:47:43.998Z,970.41
2022-11-27T07:48:44.066Z,970.4
2022-11-27T07:49:44.055Z,970.38
2022-11-27T07:50:45.199Z,970.29
2022-11-27T07:51:44.081Z,970.26
2022-11-27T07:52:44.043Z,970.28
2022-11-27T07:53:44.058Z,970.25
2022-11-27T07:54:44.077Z,970.23
2022-11-27T07:57:43.970Z,970.21
2022-11-27T07:58:44.003Z,970.23
2022-11-27T07:59:47.234Z,970.2
2022-11-27T08:00:44.060Z,970.18
2022-11-27T08:01:44.093Z,970.12
2022-11-27T08:02:44.148Z,970.08
2022-11-27T08:03:43.972Z,970.09
2022-11-27T08:04:44.402Z,970.05
2022-11-27T08:05:43.996Z,970.03
2022-11-27T08:06:44.038Z,970.05
2022-11-27T08:07:44.101Z,970.03
2022-11-27T08:08:44.096Z,970.04
2022-11-27T08:09:44.082Z,969.99
2022-11-27T08:10:44.099Z,970
2022-11-27T08:11:45.197Z,969.96
2022-11-27T08:12:44.066Z,969.99
2022-11-27T08:13:44.036Z,969.97
2022-11-27T08:14:44.128Z,969.98
2022-11-27T08:15:44.119Z,970
2022-11-27T08:16:44.095Z,970.03
2022-11-27T08:17:44.026Z,970.06
2022-11-27T08:19:44.079Z,970
2022-11-27T08:20:44.119Z,970.05
2022-11-27T08:21:44.096Z,970
2022-11-27T08:22:44.088Z,969.97
2022-11-27T08:23:43.955Z,969.92
2022-11-27T08:24:44.096Z,969.89
2022-11-27T08:25:44.091Z,969.94
2022-11-27T08:26:44.079Z,969.92
2022-11-27T08:27:44.115Z,969.94
2022-11-27T08:28:44.039Z,969.92
2022-11-27T08:30:44.095Z,969.94
2022-11-27T08:31:44.172Z,969.96
2022-11-27T08:32:44.193Z,970.03
2022-11-27T08:33:44.092Z,970.02
2022-11-27T08:35:44.163Z,970.07
2022-11-27T08:37:44.026Z,970.05
2022-11-27T08:38:44.148Z,970.02
2022-11-27T08:40:44.054Z,970.03
2022-11-27T08:41:44.121Z,970.07
2022-11-27T08:42:44.077Z,970.12
2022-11-27T08:43:44.228Z,970.16
2022-11-27T08:45:44.224Z,970.15
2022-11-27T08:46:44.193Z,970.14
2022-11-27T08:47:44.197Z,970.04
2022-11-27T08:48:44.170Z,970.12
2022-11-27T08:50:44.189Z,970.1
2022-11-27T08:51:44.043Z,970.06
2022-11-27T08:52:44.086Z,970.01
2022-11-27T08:53:44.129Z,970.03
2022-11-27T08:54:44.039Z,970.08
2022-11-27T08:55:44.221Z,970.09
2022-11-27T08:56:44.181Z,970.04
2022-11-27T08:57:44.037Z,970.12
2022-11-27T08:58:44.088Z,970.07
2022-11-27T08:59:44.170Z,970.05
2022-11-27T09:00:44.172Z,969.96
2022-11-27T09:01:44.215Z,970.1
2022-11-27T09:02:44.047Z,970.05
2022-11-27T09:03:44.150Z,970.02
2022-11-27T09:04:44.188Z,969.92
2022-11-27T09:05:44.205Z,970.02
2022-11-27T09:06:44.180Z,969.92
2022-11-27T09:07:44.251Z,969.91
2022-11-27T09:08:44.160Z,969.98
2022-11-27T09:09:44.178Z,969.97
2022-11-27T09:10:44.198Z,969.98
2022-11-27T09:11:44.312Z,969.99
2022-11-27T09:12:44.231Z,969.92
2022-11-27T09:13:44.091Z,969.86
2022-11-27T09:14:44.073Z,969.85
2022-11-27T09:15:45.477Z,969.86
2022-11-27T09:16:44.305Z,969.84
2022-11-27T09:17:44.219Z,969.8
2022-11-27T09:18:44.137Z,969.82
2022-11-27T09:19:44.259Z,969.81
2022-11-27T09:21:44.245Z,969.83
2022-11-27T09:22:44.230Z,969.86
2022-11-27T09:23:44.110Z,969.85
2022-11-27T09:24:44.165Z,969.89
2022-11-27T09:25:44.117Z,969.9
2022-11-27T09:26:44.158Z,969.92
2022-11-27T09:27:44.132Z,969.91
2022-11-27T09:28:44.164Z,969.93
2022-11-27T09:29:44.158Z,969.9
2022-11-27T09:30:44.343Z,969.92
2022-11-27T09:31:44.175Z,969.9
2022-11-27T09:33:44.328Z,969.88
2022-11-27T09:34:44.473Z,969.9
2022-11-27T09:35:44.167Z,969.84
2022-11-27T09:36:44.129Z,969.79
2022-11-27T09:37:44.165Z,969.78
2022-11-27T09:38:44.136Z,969.77
2022-11-27T09:39:44.273Z,969.78
2022-11-27T09:40:44.181Z,969.79
2022-11-27T09:41:44.253Z,969.78
2022-11-27T09:42:44.257Z,969.8
2022-11-27T09:43:44.199Z,969.79
2022-11-27T09:44:44.204Z,969.81
2022-11-27T09:45:44.344Z,969.82
2022-11-27T09:46:44.275Z,969.76
2022-11-27T09:47:44.321Z,969.81
2022-11-27T09:48:44.366Z,969.73
2022-11-27T09:49:44.246Z,969.71
2022-11-27T09:50:44.314Z,969.72
2022-11-27T09:51:44.221Z,969.65
2022-11-27T09:52:44.198Z,969.62
2022-11-27T09:53:44.183Z,969.58
2022-11-27T09:54:48.122Z,969.52
2022-11-27T09:55:44.363Z,969.51
2022-11-27T09:56:44.353Z,969.46
2022-11-27T09:57:44.314Z,969.45
2022-11-27T09:58:44.244Z,969.46
2022-11-27T09:59:44.357Z,969.44
2022-11-27T10:00:44.276Z,969.46
2022-11-27T10:01:47.583Z,969.4
2022-11-27T10:02:44.442Z,969.43
2022-11-27T10:03:44.305Z,969.39
2022-11-27T10:04:58.287Z,969.41
2022-11-27T10:05:44.427Z,969.39
2022-11-27T10:06:44.358Z,969.34
2022-11-27T10:07:44.336Z,969.32
2022-11-27T10:08:44.186Z,969.34
2022-11-27T10:10:44.334Z,969.35
2022-11-27T10:12:44.337Z,969.32
2022-11-27T10:14:44.264Z,969.29
2022-11-27T10:17:44.248Z,969.28
2022-11-27T10:18:44.299Z,969.31
2022-11-27T10:19:44.281Z,969.26
2022-11-27T10:20:44.286Z,969.25
2022-11-27T10:21:44.421Z,969.22
2022-11-27T10:22:44.281Z,969.17
2022-11-27T10:23:44.346Z,969.11
2022-11-27T10:24:44.384Z,969.09
2022-11-27T10:25:44.239Z,969.03
2022-11-27T10:26:44.467Z,968.97
2022-11-27T10:27:44.389Z,968.95
2022-11-27T10:28:44.437Z,968.98
2022-11-27T10:29:47.157Z,968.95
2022-11-27T10:30:44.287Z,968.96
2022-11-27T10:32:54.942Z,968.95
2022-11-27T10:34:44.462Z,968.97
2022-11-27T10:35:44.406Z,968.94
2022-11-27T10:36:44.337Z,968.98
2022-11-27T10:37:44.359Z,968.95
2022-11-27T10:38:44.455Z,968.98
2022-11-27T10:39:44.360Z,968.96
2022-11-27T10:40:44.319Z,968.94
2022-11-27T10:41:49.852Z,968.91
2022-11-27T10:42:44.412Z,968.94
2022-11-27T10:43:44.458Z,968.9
2022-11-27T10:44:44.522Z,968.87
2022-11-27T10:45:44.474Z,968.84
2022-11-27T10:46:44.292Z,968.81
2022-11-27T10:47:44.332Z,968.78
2022-11-27T10:48:44.346Z,968.76
2022-11-27T10:49:44.345Z,968.71
2022-11-27T10:50:44.421Z,968.74
2022-11-27T10:51:44.449Z,968.69
2022-11-27T10:52:47.088Z,968.72
2022-11-27T10:53:44.623Z,968.67
2022-11-27T10:54:44.582Z,968.62
2022-11-27T10:55:44.354Z,968.59
2022-11-27T10:56:44.506Z,968.55
2022-11-27T10:57:44.532Z,968.5
2022-11-27T10:58:44.359Z,968.47
2022-11-27T10:59:44.369Z,968.46
2022-11-27T11:01:44.440Z,968.42
2022-11-27T11:02:44.557Z,968.39
2022-11-27T11:04:44.475Z,968.37
2022-11-27T11:06:11.972Z,968.35
2022-11-27T11:07:44.514Z,968.34
2022-11-27T11:08:44.330Z,968.33
2022-11-27T11:09:44.367Z,968.36
2022-11-27T11:10:44.454Z,968.37
2022-11-27T11:11:44.346Z,968.33
2022-11-27T11:12:44.482Z,968.34
2022-11-27T11:13:44.431Z,968.36
2022-11-27T11:15:47.441Z,968.33
2022-11-27T11:16:44.519Z,968.31
2022-11-27T11:17:44.436Z,968.28
2022-11-27T11:18:44.356Z,968.33
2022-11-27T11:19:44.455Z,968.31
2022-11-27T11:20:44.411Z,968.28
2022-11-27T11:21:44.375Z,968.23
2022-11-27T11:22:44.401Z,968.19
2022-11-27T11:24:44.632Z,968.14
2022-11-27T11:25:44.422Z,968.1
2022-11-27T11:26:44.601Z,968.07
2022-11-27T11:27:44.448Z,968.03
2022-11-27T11:29:44.437Z,968.02
2022-11-27T11:30:44.408Z,968
2022-11-27T11:31:44.585Z,968.02
2022-11-27T11:32:44.489Z,967.98
2022-11-27T11:33:44.436Z,967.94
2022-11-27T11:34:44.465Z,967.93
2022-11-27T11:35:44.577Z,967.94
2022-11-27T11:36:44.492Z,967.9
2022-11-27T11:37:44.407Z,967.85
2022-11-27T11:38:44.477Z,967.88
2022-11-27T11:39:44.480Z,967.82
2022-11-27T11:40:44.456Z,967.87
2022-11-27T11:42:44.464Z,967.89
2022-11-27T11:43:44.530Z,967.88
2022-11-27T11:45:44.517Z,967.85
2022-11-27T11:46:44.479Z,967.82
2022-11-27T11:47:44.498Z,967.81
2022-11-27T11:48:44.534Z,967.8
2022-11-27T11:49:44.524Z,967.81
2022-11-27T11:50:44.477Z,967.79
2022-11-27T11:51:44.613Z,967.77
2022-11-27T11:52:44.546Z,967.74
2022-11-27T11:53:45.841Z,967.7
2022-11-27T11:54:44.587Z,967.62
2022-11-27T11:55:44.514Z,967.59
2022-11-27T11:56:44.508Z,967.58
2022-11-27T11:57:44.549Z,967.56
2022-11-27T11:58:44.547Z,967.59
2022-11-27T11:59:45.251Z,967.58
2022-11-27T12:01:04.651Z,967.55
2022-11-27T12:01:44.885Z,967.57
2022-11-27T12:02:44.597Z,967.53
2022-11-27T12:04:44.833Z,967.58
2022-11-27T12:05:44.672Z,967.51
2022-11-27T12:06:44.624Z,967.49
2022-11-27T12:07:48.975Z,967.47
2022-11-27T12:08:44.667Z,967.44
2022-11-27T12:09:44.640Z,967.41
2022-11-27T12:10:44.563Z,967.34
2022-11-27T12:12:44.567Z,967.33
2022-11-27T12:13:44.583Z,967.28
2022-11-27T12:14:44.485Z,967.29
2022-11-27T12:15:44.652Z,967.27
2022-11-27T12:16:44.540Z,967.3
2022-11-27T12:18:45.860Z,967.27
2022-11-27T12:19:45.932Z,967.29
2022-11-27T12:21:44.603Z,967.27
2022-11-27T12:22:44.579Z,967.3
2022-11-27T12:23:44.680Z,967.35
2022-11-27T12:24:44.621Z,967.36
2022-11-27T12:25:44.635Z,967.37
2022-11-27T12:26:44.667Z,967.35
2022-11-27T12:27:44.756Z,967.31
2022-11-27T12:28:44.582Z,967.3
2022-11-27T12:29:44.703Z,967.26
2022-11-27T12:30:44.539Z,967.23
2022-11-27T12:31:44.637Z,967.19
2022-11-27T12:32:44.529Z,967.18
2022-11-27T12:33:44.607Z,967.17
2022-11-27T12:35:44.663Z,967.11
2022-11-27T12:36:45.992Z,967.08
2022-11-27T12:37:44.576Z,967.05
2022-11-27T12:38:44.665Z,967.03
2022-11-27T12:39:44.796Z,966.97
2022-11-27T12:40:44.744Z,966.96
2022-11-27T12:41:44.687Z,966.99
2022-11-27T12:42:44.593Z,966.97
2022-11-27T12:43:44.790Z,966.89
2022-11-27T12:44:44.704Z,966.87
2022-11-27T12:45:46.053Z,966.81
2022-11-27T12:46:44.675Z,966.8
2022-11-27T12:48:44.674Z,966.79
2022-11-27T12:49:44.656Z,966.81
2022-11-27T12:50:44.583Z,966.83
2022-11-27T12:51:46.015Z,966.84
2022-11-27T12:52:44.806Z,966.85
2022-11-27T12:53:44.712Z,966.86
2022-11-27T12:54:46.100Z,966.89
2022-11-27T12:55:44.759Z,966.86
2022-11-27T12:56:44.747Z,966.81
2022-11-27T12:57:44.671Z,966.8
2022-11-27T12:59:44.864Z,966.72
2022-11-27T13:01:44.869Z,966.69
2022-11-27T13:02:44.931Z,966.65
2022-11-27T13:03:44.810Z,966.62
2022-11-27T13:04:44.624Z,966.6
2022-11-27T13:05:44.703Z,966.58
2022-11-27T13:06:44.679Z,966.53
2022-11-27T13:08:49.694Z,966.49
2022-11-27T13:09:44.720Z,966.54
2022-11-27T13:10:44.732Z,966.51
2022-11-27T13:12:44.729Z,966.46
2022-11-27T13:13:44.771Z,966.42
2022-11-27T13:14:47.535Z,966.41
2022-11-27T13:15:44.836Z,966.4
2022-11-27T13:18:44.701Z,966.39
2022-11-27T13:19:44.818Z,966.36
2022-11-27T13:20:47.158Z,966.37
2022-11-27T13:21:44.778Z,966.35
2022-11-27T13:22:44.794Z,966.36
2022-11-27T13:23:44.828Z,966.35
2022-11-27T13:24:44.711Z,966.32
2022-11-27T13:25:44.790Z,966.24
2022-11-27T13:26:45.830Z,966.21
2022-11-27T13:27:44.743Z,966.18
2022-11-27T13:28:44.849Z,966.09
2022-11-27T13:29:44.748Z,966.07
2022-11-27T13:30:44.868Z,966.05
2022-11-27T13:31:44.722Z,966
2022-11-27T13:33:44.742Z,965.96
2022-11-27T13:34:44.938Z,965.98
2022-11-27T13:35:44.891Z,965.91
2022-11-27T13:36:44.840Z,965.89
2022-11-27T13:37:44.814Z,965.86
2022-11-27T13:38:44.769Z,965.84
2022-11-27T13:40:44.941Z,965.85
2022-11-27T13:41:44.845Z,965.83
2022-11-27T13:42:44.752Z,965.8
2022-11-27T13:43:44.812Z,965.77
2022-11-27T13:44:44.905Z,965.73
2022-11-27T13:45:44.874Z,965.72
2022-11-27T13:46:44.770Z,965.73
2022-11-27T13:47:44.861Z,965.7
2022-11-27T13:48:44.853Z,965.69
2022-11-27T13:50:44.885Z,965.7
2022-11-27T13:52:44.872Z,965.72
2022-11-27T13:53:44.949Z,965.71
2022-11-27T13:54:45.089Z,965.69
2022-11-27T13:55:44.863Z,965.66
2022-11-27T13:56:44.895Z,965.62
2022-11-27T13:57:44.744Z,965.61
2022-11-27T13:58:44.838Z,965.63
2022-11-27T13:59:44.747Z,965.59
2022-11-27T14:00:44.887Z,965.62
2022-11-27T14:01:44.922Z,965.6
2022-11-27T14:02:44.853Z,965.57
2022-11-27T14:03:45.017Z,965.58
2022-11-27T14:04:44.957Z,965.53
2022-11-27T14:06:44.954Z,965.44
2022-11-27T14:07:45.060Z,965.45
2022-11-27T14:08:44.915Z,965.42
2022-11-27T14:09:44.853Z,965.41
2022-11-27T14:10:44.949Z,965.38
2022-11-27T14:11:44.828Z,965.4
2022-11-27T14:12:44.866Z,965.37
2022-11-27T14:13:45.098Z,965.36
2022-11-27T14:14:44.930Z,965.35
2022-11-27T14:15:45.074Z,965.31
2022-11-27T14:16:44.792Z,965.32
2022-11-27T14:17:45.010Z,965.3
2022-11-27T14:18:44.860Z,965.29
2022-11-27T14:19:45.019Z,965.25
2022-11-27T14:20:44.969Z,965.26